Etusivu
METAR-TAF:

METAR-TAF

Lentoasemat :

Münster-Osnabrück, Saksa

Leveyspiiri: 52-08N, Pituuspiiri: 007-42E, korkeus merenpinnasta: 48 m

Tämänhetkinen sää

Tämä raportti tehtiin 25 minuuttia sitten, kello 16.20 UTC
Tuuli 2 kn eri suunnista
Lämpötila 19°C
Kosteus 78%
Ilmanpaine 1009 hPa
Näkyvyys 10 km tai enemmän
ei pilviä alle 1500 m:ssä eikä cumulonimbus-pilviä

METAR: EDDG 141620Z VRB02KT CAVOK 19/15 Q1009 NOSIG

Aika: 18:45 (16:45 UTC)

Sääennuste

Tämä raportti tehtiin 5 tuntia ja 45 minuuttia sitten, kello 11.00 UTC
Ennuste voimassa 14. päivästä klo 12 UTC - 15. päivään klo 12 UTC
Tuuli 5 kn koillisesta
Näkyvyys 10 km tai enemmän
ei pilviä alle 1500 m:ssä eikä cumulonimbus-pilviä
Tulossa
14. päivästä klo 12 UTC - 14. päivään klo 15 UTC
Tuuli 4 kn idästä/kaakosta

TAF: EDDG 141100Z 1412/1512 05005KT CAVOK BECMG 1412/1415 11004KT

Säähavainnot ja -ennusteet yli 4000 lentoasemalta (METAR- ja TAF-raportit).

Käytössä olevat sääasemat on merkitty karttaan keltaisilla ja punaisilla pisteillä.

Aseta hiiri pisteen päälle nähdäksesi sääaseman nimen.

Klikkaa sitten nähdäksesi säähavainnot ja -ennusteet.

Kartan vaihtaminen: klikkaa mustalla rastilla varustettuja vihreitä pisteitä, niin voit zoomata sisään; viivalla varustettua vihreää pistettä, niin voit zoomata ulos tai vihreitä nuolia, niin pääset viereisille kartoille.


METAR-TAF: